Impacts METAR Board
IDs:

KJFK - New York/Kennedy Int, NY, US

Updated at: 0700 UTC 21 Sep 2018
Potential Impact None Slight Moderate High
Time 20/19Z 20/20Z 20/21Z 20/22Z 20/23Z 21/00Z 21/01Z 21/02Z 21/03Z 21/04Z 21/05Z 21/06Z 21/07Z
Temp69 70 70 69 67 67 67 67 67 67 67 67 68
Dewpt60 62 62 62 62 62 62 62 62 62 61 62 62
Altim30.23 30.22 30.22 30.24 30.24 30.25 30.26 30.27 30.27 30.27 30.27 30.26 30.24
VIS10 10 10 10 10 10 10 10 10 10 10 10 10
CIG34 37 55 40 45 50 50 50 28 25 24 29 27
CoverBKNBKNBKNBKNBKNOVCOVCOVCOVCOVCOVCOVCOVC
FltCatVFRVFRVFRVFRVFRVFRVFRVFRMVFRMVFRMVFRMVFRMVFR
WX--------------------------
WDir170150150150160140130130130120140140140
WSpd8 6 7 9 7 4 5 8 9 6 6 6 10
WGst-- -- -- -- -- -- -- -- -- -- -- -- --
Raw hourly METARs
KJFK 201851Z 17008KT 10SM BKN034 BKN055 21/16 A3023 RMK AO2 SLP235 T02060156 $
KJFK 201951Z 15006KT 10SM BKN037 BKN055 BKN250 21/17 A3022 RMK AO2 SLP234 T02110167 $
KJFK 202051Z 15007KT 10SM SCT039 BKN055 BKN250 21/17 A3022 RMK AO2 SLP232 T02110167 56006 $
KJFK 202151Z 15009KT 10SM SCT021 BKN040 BKN055 21/17 A3024 RMK AO2 SLP239 T02060167
KJFK 202251Z 16007KT 10SM SCT025 BKN045 BKN055 19/17 A3024 RMK AO2 SLP240 T01940167
KJFK 202351Z 14004KT 10SM FEW025 OVC050 19/17 A3025 RMK AO2 SLP242 T01940167 10222 20189 51009
KJFK 210051Z 13005KT 10SM FEW021 OVC050 19/17 A3026 RMK AO2 SLP246 T01940167
KJFK 210151Z 13008KT 10SM SCT028 OVC050 19/17 A3027 RMK AO2 SLP248 T01940167
KJFK 210251Z 13009KT 10SM SCT022 BKN028 OVC055 19/17 A3027 RMK AO2 SLP248 T01940167 50002
KJFK 210351Z 12006KT 10SM BKN025 OVC050 19/17 A3027 RMK AO2 SLP250 T01940167
KJFK 210451Z 14006KT 10SM BKN024 OVC055 19/16 A3027 RMK AO2 SLP250 T01940161 402280178
KJFK 210551Z 14006KT 10SM BKN029 OVC055 19/17 A3026 RMK AO2 SLP246 T01940167 10194 20189 58002
KJFK 210651Z 14010KT 10SM BKN027 OVC060 20/17 A3024 RMK AO2 SLP241 T02000167



Page loaded:  07:32 UTC  |   12:32 AM Pacific  |   01:32 AM Mountain  |   02:32 AM Central  |   03:32 AM Eastern

 

ADVISORIES

FORECASTS

FORECASTS

OBSERVATIONS

USER TOOLS

ABOUT US